Time;durP1;ratioP1;P1;durP2;ratioP2;P2;SDS_P1;SDS_P2;PMS_P1;PMS_P2;Temp;Humidity;BMP_temperature;BMP_pressure;BME280_temperature;BME280_humidity;BME280_pressure;Samples;Min_cycle;Max_cycle;Signal;HPM_P1;HPM_P2
2023/10/13 00:00:25;;;;;;;40.60;19.40;;;;;;;13.63;99.23;100220.30;130093;1261;116249;-71
2023/10/13 00:03:45;;;;;;;33.60;17.50;;;;;;;13.62;99.22;100218.42;130350;1256;114740;-71
2023/10/13 00:06:47;;;;;;;31.60;19.60;;;;;;;13.62;99.33;100214.66;130306;1256;114806;-71
2023/10/13 00:09:49;;;;;;;31.00;19.30;;;;;;;13.61;99.46;100213.78;130395;1255;114806;-73
2023/10/13 00:12:52;;;;;;;36.80;17.50;;;;;;;13.61;99.41;100214.88;130248;1255;114843;-71
2023/10/13 00:15:57;;;;;;;34.50;18.40;;;;;;;13.62;99.35;100217.73;130562;1257;114815;-72
2023/10/13 00:18:59;;;;;;;24.50;16.60;;;;;;;13.61;99.40;100215.40;129985;1262;115187;-72
2023/10/13 00:22:09;;;;;;;30.00;18.00;;;;;;;13.62;99.33;100217.88;130281;1256;115166;-71
2023/10/13 00:25:19;;;;;;;31.20;16.80;;;;;;;13.62;99.34;100218.44;130319;1272;129347;-71
2023/10/13 00:28:24;;;;;;;28.50;17.10;;;;;;;13.61;99.41;100219.02;130354;1253;115180;-71
2023/10/13 00:31:32;;;;;;;33.40;17.70;;;;;;;13.61;99.36;100218.30;130271;1274;114724;-71
2023/10/13 00:34:37;;;;;;;30.50;18.00;;;;;;;13.60;99.58;100217.10;130172;1271;114821;-71
2023/10/13 00:37:46;;;;;;;30.80;17.50;;;;;;;13.60;99.56;100216.77;130268;1257;115135;-71
2023/10/13 00:40:55;;;;;;;26.60;17.00;;;;;;;13.59;99.53;100217.67;130242;1257;128885;-71
2023/10/13 00:44:09;;;;;;;26.50;16.50;;;;;;;13.59;99.52;100222.01;130039;1260;115191;-70
2023/10/13 00:47:17;;;;;;;35.30;17.70;;;;;;;13.59;99.52;100216.81;129998;1264;115186;-71
2023/10/13 00:50:20;;;;;;;27.10;18.10;;;;;;;13.57;99.47;100215.14;130439;1254;114714;-70
2023/10/13 00:53:23;;;;;;;28.30;18.90;;;;;;;13.56;99.36;100217.15;130245;1254;116151;-70
2023/10/13 00:56:27;;;;;;;28.10;19.00;;;;;;;13.55;99.51;100220.67;130436;1267;114745;-72
2023/10/13 00:59:33;;;;;;;33.30;18.40;;;;;;;13.54;99.45;100222.16;130346;1256;114739;-71
2023/10/13 01:02:39;;;;;;;30.10;17.70;;;;;;;13.53;99.60;100219.34;130246;1257;114754;-72
2023/10/13 01:05:42;;;;;;;25.50;16.80;;;;;;;13.52;99.47;100217.23;130289;1276;114724;-71
2023/10/13 01:08:50;;;;;;;31.00;17.70;;;;;;;13.50;99.50;100222.35;130406;1276;114796;-72
2023/10/13 01:11:52;;;;;;;29.40;17.40;;;;;;;13.50;99.40;100221.81;130296;1266;128871;-71
2023/10/13 01:14:59;;;;;;;27.10;17.30;;;;;;;13.50;99.47;100224.92;130444;1257;114725;-71
2023/10/13 01:18:16;;;;;;;27.10;17.00;;;;;;;13.49;99.50;100226.77;129978;1258;115086;-71
2023/10/13 01:21:27;;;;;;;27.50;16.60;;;;;;;13.48;99.57;100224.09;130243;1257;114818;-71
2023/10/13 01:24:37;;;;;;;26.30;17.30;;;;;;;13.50;99.69;100229.70;129946;1254;115184;-71
2023/10/13 01:27:41;;;;;;;32.80;19.70;;;;;;;13.54;99.54;100231.09;129929;1263;128168;-72
2023/10/13 01:30:44;;;;;;;32.90;19.90;;;;;;;13.56;99.55;100233.69;130368;1260;114834;-71
2023/10/13 01:33:46;;;;;;;31.30;19.70;;;;;;;13.58;99.61;100232.14;130366;1262;114806;-71
2023/10/13 01:36:50;;;;;;;32.80;20.10;;;;;;;13.58;99.75;100228.32;130250;1257;114757;-71
2023/10/13 01:39:53;;;;;;;29.30;19.10;;;;;;;13.61;99.72;100230.35;130524;1253;114679;-71
2023/10/13 01:42:55;;;;;;;29.30;19.00;;;;;;;13.60;99.85;100229.69;130395;1257;114813;-71
2023/10/13 01:45:57;;;;;;;35.60;20.10;;;;;;;13.58;99.96;100226.05;130308;1254;115409;-71
2023/10/13 01:48:59;;;;;;;31.30;20.30;;;;;;;13.58;100.00;100227.48;129870;1253;116583;-72
2023/10/13 01:52:03;;;;;;;30.40;20.00;;;;;;;13.58;100.00;100228.70;130414;1258;115225;-72
2023/10/13 01:55:07;;;;;;;32.70;21.10;;;;;;;13.58;100.00;100234.43;130410;1257;114787;-72
2023/10/13 01:58:15;;;;;;;29.50;18.90;;;;;;;13.59;100.00;100235.62;130565;1257;114748;-72
2023/10/13 02:01:26;;;;;;;26.50;18.70;;;;;;;13.61;100.00;100234.63;130425;1273;128557;-72
2023/10/13 02:04:28;;;;;;;31.70;19.30;;;;;;;13.64;100.00;100233.72;129963;1262;115236;-71
2023/10/13 02:07:30;;;;;;;32.30;19.00;;;;;;;13.66;100.00;100230.89;130350;1264;115408;-71
2023/10/13 02:10:32;;;;;;;35.20;19.30;;;;;;;13.68;100.00;100228.27;130421;1254;115142;-71
2023/10/13 02:13:41;;;;;;;28.50;18.20;;;;;;;13.69;100.00;100222.08;130369;1276;114837;-71
2023/10/13 02:16:46;;;;;;;30.70;18.80;;;;;;;13.71;100.00;100218.95;130120;1263;114805;-70
2023/10/13 02:19:49;;;;;;;27.30;18.30;;;;;;;13.73;100.00;100221.16;129979;1276;127853;-71
2023/10/13 02:22:52;;;;;;;31.10;18.80;;;;;;;13.74;100.00;100220.90;130197;1257;114705;-71
2023/10/13 02:26:00;;;;;;;26.10;17.80;;;;;;;13.73;100.00;100219.55;130407;1254;115185;-71
2023/10/13 02:29:07;;;;;;;29.20;19.10;;;;;;;13.72;100.00;100216.00;130378;1276;115108;-71
2023/10/13 02:32:18;;;;;;;27.50;18.00;;;;;;;13.72;100.00;100215.63;129988;1260;114857;-71
2023/10/13 02:35:30;;;;;;;30.20;17.60;;;;;;;13.73;100.00;100213.26;130279;1254;127898;-70
2023/10/13 02:41:41;;;;;;;25.10;17.60;;;;;;;13.73;100.00;100215.91;130481;1258;115467;-70
2023/10/13 02:44:46;;;;;;;26.30;17.90;;;;;;;13.73;100.00;100211.96;130445;1254;114734;-71
2023/10/13 02:48:09;;;;;;;30.90;18.00;;;;;;;13.72;100.00;100212.75;130163;1261;114854;-72
2023/10/13 02:51:16;;;;;;;27.70;17.30;;;;;;;13.71;100.00;100219.29;130295;1257;127630;-70
2023/10/13 02:54:19;;;;;;;20.70;15.70;;;;;;;13.68;100.00;100224.46;130435;1254;115243;-71
2023/10/13 02:57:22;;;;;;;21.50;15.30;;;;;;;13.66;100.00;100224.20;130442;1257;115491;-71
2023/10/13 03:00:31;;;;;;;24.00;16.20;;;;;;;13.64;100.00;100226.74;130351;1254;114711;-70
2023/10/13 03:03:34;;;;;;;26.80;15.80;;;;;;;13.60;100.00;100225.36;130359;1256;115162;-71
2023/10/13 03:06:39;;;;;;;19.00;13.50;;;;;;;13.56;100.00;100224.16;130401;1256;114811;-71
2023/10/13 03:09:50;;;;;;;20.30;14.00;;;;;;;13.50;99.95;100234.39;130252;1254;115243;-71
2023/10/13 03:12:53;;;;;;;21.60;14.20;;;;;;;13.44;99.97;100231.56;130263;1265;114761;-74
2023/10/13 03:15:55;;;;;;;22.10;13.80;;;;;;;13.40;99.88;100232.16;130316;1254;114694;-73
2023/10/13 03:18:57;;;;;;;22.50;14.70;;;;;;;13.36;99.75;100235.98;130385;1257;114745;-72
2023/10/13 03:22:11;;;;;;;21.50;14.90;;;;;;;13.31;99.73;100232.85;130310;1254;116325;-72
2023/10/13 03:25:29;;;;;;;21.80;14.80;;;;;;;13.26;99.75;100233.00;130028;1276;127888;-73
2023/10/13 03:28:33;;;;;;;23.30;14.30;;;;;;;13.22;99.80;100234.14;128195;1253;2999217;-73
2023/10/13 03:31:37;;;;;;;21.70;15.00;;;;;;;13.19;99.81;100234.83;130361;1268;114737;-73
2023/10/13 03:34:46;;;;;;;20.30;14.00;;;;;;;13.18;99.93;100233.86;130361;1256;115177;-73
2023/10/13 03:37:48;;;;;;;22.40;14.80;;;;;;;13.14;99.82;100240.89;130279;1270;115205;-72
2023/10/13 03:40:56;;;;;;;23.20;15.30;;;;;;;13.10;99.67;100237.73;130367;1254;114714;-73
2023/10/13 03:44:08;;;;;;;26.10;14.10;;;;;;;13.05;99.59;100234.81;130322;1254;115243;-73
2023/10/13 03:47:18;;;;;;;26.90;14.30;;;;;;;12.99;99.26;100231.93;130060;1262;114896;-73
2023/10/13 03:50:30;;;;;;;19.10;13.70;;;;;;;12.90;99.18;100230.67;130302;1276;114668;-73
2023/10/13 03:53:36;;;;;;;25.20;13.90;;;;;;;12.82;99.21;100230.65;130380;1258;114792;-73
2023/10/13 03:56:38;;;;;;;21.80;14.20;;;;;;;12.74;98.98;100234.70;130338;1255;128884;-72
2023/10/13 03:59:46;;;;;;;17.90;13.80;;;;;;;12.67;99.06;100233.88;130287;1257;115126;-73
2023/10/13 04:03:05;;;;;;;19.70;13.90;;;;;;;12.60;99.03;100237.10;130183;1254;115951;-73
2023/10/13 04:06:16;;;;;;;26.30;16.60;;;;;;;12.55;99.12;100238.14;129899;1257;115475;-73
2023/10/13 04:16:14;;;;;;;16.60;13.10;;;;;;;12.48;99.63;100238.00;130268;1257;115379;-72
2023/10/13 04:19:08;;;;;;;20.40;13.50;;;;;;;12.44;99.54;100227.46;130339;1256;115127;-73
2023/10/13 04:22:20;;;;;;;23.60;13.70;;;;;;;12.41;99.54;100218.70;130078;1254;116392;-73
2023/10/13 04:28:51;;;;;;;22.40;15.20;;;;;;;12.40;99.88;100221.27;130245;1276;128873;-72
2023/10/13 04:32:00;;;;;;;27.30;15.00;;;;;;;12.41;99.97;100220.33;130377;1258;115216;-74
2023/10/13 04:35:10;;;;;;;22.60;15.20;;;;;;;12.42;99.99;100217.05;130204;1256;116602;-73
2023/10/13 04:38:19;;;;;;;26.20;15.20;;;;;;;12.44;100.00;100218.37;130319;1254;114742;-73
2023/10/13 04:41:31;;;;;;;23.30;15.20;;;;;;;12.45;100.00;100213.98;130445;1256;114674;-73
2023/10/13 04:47:57;;;;;;;22.30;15.50;;;;;;;12.51;100.00;100217.40;130258;1256;114839;-73
2023/10/13 04:57:54;;;;;;;23.70;17.10;;;;;;;12.62;100.00;100217.13;129704;1266;114729;-73
2023/10/13 05:04:30;;;;;;;23.60;16.10;;;;;;;12.72;100.00;100214.02;129469;1267;115712;-73
2023/10/13 05:44:37;;;;;;;40.30;24.20;;;;;;;13.48;100.00;100208.52;130307;1261;115173;-74
2023/10/13 06:31:00;;;;;;;33.10;23.10;;;;;;;14.72;100.00;100216.08;130474;1254;114734;-73
2023/10/13 06:34:03;;;;;;;33.60;22.60;;;;;;;14.82;100.00;100218.46;130418;1254;114732;-74
2023/10/13 06:40:26;;;;;;;33.10;22.40;;;;;;;15.00;100.00;100217.96;130158;1260;127476;-74
2023/10/13 06:43:32;;;;;;;32.00;21.10;;;;;;;15.09;100.00;100222.72;130358;1256;114813;-75
2023/10/13 06:46:34;;;;;;;25.30;20.50;;;;;;;15.17;100.00;100229.92;130082;1276;114726;-73
2023/10/13 06:49:43;;;;;;;37.50;22.10;;;;;;;15.26;100.00;100229.84;130359;1254;114751;-73
2023/10/13 06:52:49;;;;;;;28.90;19.90;;;;;;;15.36;100.00;100233.05;130253;1260;115102;-74
2023/10/13 06:55:53;;;;;;;32.50;21.20;;;;;;;15.47;100.00;100228.71;130339;1254;128948;-74
2023/10/13 06:59:04;;;;;;;37.90;21.00;;;;;;;15.59;100.00;100225.32;130368;1272;115322;-74
2023/10/13 07:02:15;;;;;;;27.50;19.10;;;;;;;15.73;100.00;100230.83;130037;1260;114937;-73
2023/10/13 07:05:19;;;;;;;30.20;19.00;;;;;;;15.86;100.00;100223.42;130022;1263;114872;-73
2023/10/13 07:08:21;;;;;;;30.40;18.70;;;;;;;16.01;100.00;100227.00;130337;1254;114856;-74
2023/10/13 07:11:33;;;;;;;24.50;18.20;;;;;;;16.16;100.00;100222.84;130328;1257;114810;-73
2023/10/13 07:14:40;;;;;;;30.80;19.10;;;;;;;16.33;100.00;100223.23;130406;1257;115276;-73
2023/10/13 07:17:44;;;;;;;24.80;18.30;;;;;;;16.50;100.00;100223.71;130013;1256;115140;-73
2023/10/13 07:20:47;;;;;;;28.50;17.90;;;;;;;16.68;100.00;100229.78;130443;1256;114779;-73
2023/10/13 07:24:00;;;;;;;27.00;18.90;;;;;;;16.85;100.00;100233.35;130349;1256;115090;-74
2023/10/13 07:27:05;;;;;;;29.10;18.90;;;;;;;17.03;100.00;100234.34;130085;1260;127981;-74
2023/10/13 07:30:14;;;;;;;25.10;17.00;;;;;;;17.23;100.00;100240.36;130029;1259;114904;-74
2023/10/13 07:33:19;;;;;;;22.90;16.20;;;;;;;17.46;100.00;100238.92;130359;1258;114764;-76
2023/10/13 07:36:33;;;;;;;26.80;16.40;;;;;;;17.70;99.80;100230.95;130267;1258;114818;-74
2023/10/13 07:39:38;;;;;;;28.80;17.50;;;;;;;17.95;99.77;100228.55;130406;1256;114803;-73
2023/10/13 07:42:43;;;;;;;18.50;14.40;;;;;;;18.23;99.39;100227.56;130289;1254;128527;-74
2023/10/13 07:45:45;;;;;;;24.80;15.80;;;;;;;18.48;98.78;100228.41;130348;1260;115361;-73
2023/10/13 07:48:51;;;;;;;23.30;14.80;;;;;;;18.72;98.31;100222.70;130300;1258;114776;-74
2023/10/13 07:51:57;;;;;;;19.70;15.50;;;;;;;18.96;97.83;100222.71;130134;1262;115867;-73
2023/10/13 07:55:11;;;;;;;19.50;13.80;;;;;;;19.17;97.19;100224.33;130385;1256;114745;-73
2023/10/13 07:58:13;;;;;;;20.80;14.50;;;;;;;19.38;96.71;100220.40;130328;1254;128869;-73
2023/10/13 08:01:18;;;;;;;19.80;14.00;;;;;;;19.52;96.20;100211.89;130297;1256;115151;-73
2023/10/13 08:04:28;;;;;;;21.60;15.00;;;;;;;19.63;95.62;100211.23;130355;1272;114798;-74
2023/10/13 08:07:30;;;;;;;15.80;13.30;;;;;;;19.71;95.13;100212.75;130448;1276;115106;-73
2023/10/13 08:10:36;;;;;;;22.30;15.20;;;;;;;19.74;94.61;100214.09;130384;1253;114732;-73
2023/10/13 08:13:47;;;;;;;24.00;14.90;;;;;;;19.76;94.49;100209.37;130437;1254;126600;-74
2023/10/13 08:16:53;;;;;;;23.10;14.80;;;;;;;19.79;94.07;100212.03;130018;1256;114805;-74
2023/10/13 08:19:56;;;;;;;17.90;14.70;;;;;;;19.80;93.47;100209.23;130309;1276;114699;-74
2023/10/13 08:23:13;;;;;;;22.70;15.90;;;;;;;19.79;93.05;100200.07;130249;1256;115735;-74
2023/10/13 08:32:58;;;;;;;17.90;13.40;;;;;;;19.85;92.38;100210.25;130641;1256;115163;-74
2023/10/13 08:49:15;;;;;;;17.00;13.60;;;;;;;20.03;91.16;100219.16;130879;1256;114745;-74
2023/10/13 08:52:56;;;;;;;15.70;12.50;;;;;;;20.09;90.69;100208.85;130827;1254;114738;-74
2023/10/13 08:56:04;;;;;;;18.50;12.00;;;;;;;20.16;90.38;100205.83;130983;1256;114740;-75
2023/10/13 08:59:07;;;;;;;16.90;13.00;;;;;;;20.26;90.62;100211.08;130918;1254;114772;-74
2023/10/13 09:02:18;;;;;;;17.20;13.00;;;;;;;20.37;90.37;100212.58;130509;1257;115496;-75
2023/10/13 09:05:41;;;;;;;20.00;12.60;;;;;;;20.50;90.10;100208.17;130227;1256;115341;-73
2023/10/13 09:09:03;;;;;;;20.20;12.90;;;;;;;20.59;89.15;100201.13;130118;1259;114700;-73
2023/10/13 09:12:21;;;;;;;19.60;12.70;;;;;;;20.67;88.56;100200.02;130501;1253;114724;-74
2023/10/13 09:15:59;;;;;;;18.90;12.00;;;;;;;20.72;88.14;100197.21;130513;1259;114840;-74
2023/10/13 09:18:52;;;;;;;16.00;10.90;;;;;;;20.81;88.23;100199.98;130206;1262;128115;-73
2023/10/13 09:21:54;;;;;;;16.90;11.70;;;;;;;20.96;88.06;100196.31;130523;1253;114734;-75
2023/10/13 09:25:00;;;;;;;16.70;10.50;;;;;;;21.08;87.43;100194.27;130609;1259;114802;-74
2023/10/13 09:28:09;;;;;;;15.60;10.80;;;;;;;21.20;86.85;100187.69;130685;1258;114827;-75
2023/10/13 09:31:12;;;;;;;11.90;9.40;;;;;;;21.33;86.42;100188.86;130586;1259;115144;-75
2023/10/13 09:34:23;;;;;;;14.00;8.40;;;;;;;21.42;85.36;100185.65;130606;1259;114740;-75
2023/10/13 09:37:27;;;;;;;14.80;8.50;;;;;;;21.41;84.52;100184.52;130686;1258;115447;-76
2023/10/13 09:43:37;;;;;;;10.90;7.90;;;;;;;21.35;84.14;100184.34;130488;1262;114942;-75
2023/10/13 09:46:41;;;;;;;11.70;8.10;;;;;;;21.33;83.97;100181.45;130847;1259;114696;-75
2023/10/13 09:49:45;;;;;;;9.40;7.90;;;;;;;21.34;83.85;100181.63;130702;1259;128096;-75
2023/10/13 09:52:47;;;;;;;12.20;7.70;;;;;;;21.39;83.51;100181.79;130725;1270;115397;-75
2023/10/13 09:56:19;;;;;;;11.70;8.00;;;;;;;21.46;82.88;100188.20;130609;1260;115239;-75
2023/10/13 09:59:34;;;;;;;10.80;7.10;;;;;;;21.62;82.78;100183.06;130659;1257;114846;-75
2023/10/13 10:02:43;;;;;;;8.80;7.10;;;;;;;21.73;81.99;100183.23;130301;1259;114718;-76
2023/10/13 10:06:03;;;;;;;12.50;6.50;;;;;;;21.82;81.20;100172.58;129982;1265;127983;-75
2023/10/13 10:09:12;;;;;;;8.60;6.50;;;;;;;21.94;81.04;100163.55;130173;1256;116532;-74
2023/10/13 10:12:29;;;;;;;8.00;6.70;;;;;;;22.10;80.97;100159.61;130476;1257;114696;-74
2023/10/13 10:15:43;;;;;;;8.50;6.50;;;;;;;22.26;81.08;100150.90;130347;1276;114648;-73
2023/10/13 10:18:45;;;;;;;11.60;7.60;;;;;;;22.39;80.56;100148.48;130393;1254;114809;-73
2023/10/13 10:21:48;;;;;;;7.30;6.60;;;;;;;22.51;79.93;100144.27;130230;1254;114690;-72
2023/10/13 10:24:59;;;;;;;11.10;6.30;;;;;;;22.61;79.54;100137.95;130274;1259;114789;-74
2023/10/13 10:28:06;;;;;;;11.10;6.50;;;;;;;22.69;78.68;100132.52;130178;1252;114827;-73
2023/10/13 10:31:12;;;;;;;9.40;7.20;;;;;;;22.76;78.30;100122.56;130270;1254;114814;-72
2023/10/13 10:34:19;;;;;;;7.50;5.70;;;;;;;22.80;78.24;100122.48;130161;1275;114908;-73
2023/10/13 10:37:23;;;;;;;13.50;6.10;;;;;;;22.85;77.88;100125.11;130102;1263;127923;-73
2023/10/13 10:40:47;;;;;;;6.80;5.90;;;;;;;22.83;76.91;100118.52;130200;1263;115014;-73
2023/10/13 10:43:48;;;;;;;9.80;6.20;;;;;;;22.76;76.62;100111.19;130405;1256;114732;-73
2023/10/13 10:46:57;;;;;;;7.00;5.50;;;;;;;22.72;76.55;100110.79;130187;1260;114821;-73
2023/10/13 10:50:06;;;;;;;6.80;5.90;;;;;;;22.68;76.16;100110.46;130565;1257;114822;-73
2023/10/13 10:53:09;;;;;;;6.10;5.40;;;;;;;22.62;75.84;100111.95;130414;1253;128968;-74
2023/10/13 10:56:55;;;;;;;8.40;5.70;;;;;;;22.53;75.23;100105.95;130388;1257;114813;-73
2023/10/13 10:59:40;;;;;;;6.70;5.70;;;;;;;22.45;75.23;100104.98;130304;1262;114696;-72
2023/10/13 11:02:42;;;;;;;5.90;5.30;;;;;;;22.37;75.08;100107.19;130355;1260;114764;-71
2023/10/13 11:05:50;;;;;;;7.00;5.70;;;;;;;22.31;74.95;100097.11;130347;1256;114690;-73
2023/10/13 11:09:18;;;;;;;7.40;5.60;;;;;;;22.23;74.47;100087.02;130166;1253;128372;-72
2023/10/13 11:12:25;;;;;;;5.90;5.00;;;;;;;22.14;74.09;100079.48;130270;1259;115206;-72
2023/10/13 11:15:33;;;;;;;8.90;5.80;;;;;;;22.05;73.85;100080.98;130356;1256;114786;-73
2023/10/13 11:18:40;;;;;;;12.90;6.00;;;;;;;21.99;74.12;100080.36;130419;1254;114818;-73
2023/10/13 11:21:42;;;;;;;9.00;6.30;;;;;;;21.96;73.97;100075.48;130015;1262;114891;-74
2023/10/13 11:24:44;;;;;;;6.60;5.50;;;;;;;21.94;73.59;100071.69;130257;1260;114741;-73
2023/10/13 11:30:58;;;;;;;7.50;5.80;;;;;;;21.91;73.82;100060.61;130057;1254;115199;-73
2023/10/13 11:34:02;;;;;;;7.70;5.70;;;;;;;21.95;73.94;100060.14;130288;1256;114744;-75
2023/10/13 11:37:28;;;;;;;11.40;5.60;;;;;;;22.02;74.02;100054.74;130459;1276;114720;-73
2023/10/13 11:41:06;;;;;;;6.50;4.70;;;;;;;22.18;73.94;100048.94;130371;1252;114683;-73
2023/10/13 11:44:12;;;;;;;5.60;4.70;;;;;;;22.39;73.91;100042.42;130349;1262;127052;-72
2023/10/13 11:47:47;;;;;;;5.10;4.60;;;;;;;22.57;73.89;100045.30;130294;1256;115273;-73
2023/10/13 11:50:49;;;;;;;6.00;5.10;;;;;;;22.71;72.61;100040.42;130130;1264;114770;-74
2023/10/13 11:53:52;;;;;;;8.90;5.20;;;;;;;22.75;72.34;100040.66;130430;1254;115237;-74
2023/10/13 11:56:58;;;;;;;6.90;5.10;;;;;;;22.78;72.21;100031.26;130459;1256;114804;-74
2023/10/13 12:00:25;;;;;;;8.10;5.50;;;;;;;22.83;72.14;100028.55;130083;1276;115086;-73
2023/10/13 12:13:05;;;;;;;5.10;4.60;;;;;;;23.29;72.01;100029.41;130452;1259;114827;-72
2023/10/13 12:16:09;;;;;;;11.70;5.10;;;;;;;23.39;71.77;100022.10;129977;1271;115076;-74
2023/10/13 12:19:12;;;;;;;5.10;4.50;;;;;;;23.48;71.19;100018.36;130502;1276;130018;-73
2023/10/13 12:22:25;;;;;;;5.80;4.50;;;;;;;23.52;71.04;100014.85;130158;1262;115216;-74
2023/10/13 12:28:40;;;;;;;7.40;3.30;;;;;;;23.65;70.57;100011.32;130244;1262;115203;-74
2023/10/13 12:31:50;;;;;;;3.60;3.20;;;;;;;23.66;70.02;100002.27;130439;1254;114713;-73
2023/10/13 12:38:16;;;;;;;5.20;3.70;;;;;;;23.61;70.09;100001.29;130476;1270;115021;-73
2023/10/13 12:54:35;;;;;;;6.40;3.10;;;;;;;23.33;68.62;99986.98;130298;1276;115216;-72
2023/10/13 12:57:43;;;;;;;6.00;3.20;;;;;;;23.20;68.53;99985.67;130275;1262;114760;-71
2023/10/13 13:00:48;;;;;;;8.10;3.10;;;;;;;23.15;68.89;99978.77;130068;1263;115116;-73
2023/10/13 13:03:55;;;;;;;5.40;3.30;;;;;;;23.11;68.95;99979.04;130321;1254;114799;-74
2023/10/13 13:06:57;;;;;;;4.60;3.20;;;;;;;23.00;68.44;99974.29;130107;1269;128860;-73
2023/10/13 13:10:00;;;;;;;4.90;3.30;;;;;;;22.93;68.83;99963.61;130403;1276;115081;-71
2023/10/13 13:13:04;;;;;;;5.10;3.20;;;;;;;22.89;69.01;99953.16;130440;1257;116651;-73
2023/10/13 13:16:07;;;;;;;5.60;2.80;;;;;;;22.82;69.08;99944.36;130174;1260;114717;-73
2023/10/13 13:19:14;;;;;;;5.50;3.40;;;;;;;22.73;69.10;99946.63;130320;1260;114727;-73
2023/10/13 13:22:17;;;;;;;4.50;3.40;;;;;;;22.63;69.38;99942.77;130622;1256;114748;-73
2023/10/13 13:25:25;;;;;;;6.30;3.40;;;;;;;22.55;69.40;99945.46;130262;1270;129209;-73
2023/10/13 13:28:37;;;;;;;7.30;3.70;;;;;;;22.42;69.27;99947.11;130362;1257;115226;-73
2023/10/13 13:31:43;;;;;;;7.20;4.40;;;;;;;22.32;69.71;99945.98;130474;1276;115204;-72
2023/10/13 13:34:54;;;;;;;5.00;3.30;;;;;;;22.21;69.78;99942.58;130127;1262;114897;-72
2023/10/13 13:38:05;;;;;;;9.00;3.30;;;;;;;22.12;69.91;99944.02;130316;1256;114694;-73
2023/10/13 13:41:16;;;;;;;5.60;2.90;;;;;;;22.05;70.16;99944.20;130038;1259;127590;-73
2023/10/13 13:44:18;;;;;;;4.30;2.90;;;;;;;22.02;70.24;99937.06;130477;1257;115253;-73
2023/10/13 13:47:20;;;;;;;9.60;3.50;;;;;;;21.97;70.20;99931.08;130559;1256;115353;-72
2023/10/13 13:50:38;;;;;;;5.30;3.20;;;;;;;21.90;70.38;99933.81;130434;1257;115250;-72
2023/10/13 13:53:44;;;;;;;7.80;3.20;;;;;;;21.81;70.39;99934.33;130432;1260;114721;-73
2023/10/13 13:56:48;;;;;;;6.10;3.40;;;;;;;21.69;70.56;99940.07;130506;1260;114730;-73
2023/10/13 13:59:52;;;;;;;4.70;3.10;;;;;;;21.62;70.75;99938.74;130355;1255;114749;-72
2023/10/13 14:02:55;;;;;;;5.80;4.10;;;;;;;21.62;71.09;99936.25;130339;1267;114732;-73
2023/10/13 14:05:59;;;;;;;5.60;2.90;;;;;;;21.65;71.43;99930.86;130316;1276;114664;-73
2023/10/13 14:09:15;;;;;;;7.20;3.30;;;;;;;21.68;71.49;99930.04;130321;1259;114874;-73
2023/10/13 14:12:36;;;;;;;5.40;3.20;;;;;;;21.68;71.68;99919.80;130333;1256;114817;-72
2023/10/13 14:15:44;;;;;;;9.50;3.90;;;;;;;21.67;71.74;99911.94;130202;1276;127652;-72
2023/10/13 14:18:47;;;;;;;4.20;3.20;;;;;;;21.65;71.88;99906.48;130701;1260;115231;-73
2023/10/13 14:21:53;;;;;;;7.50;3.70;;;;;;;21.62;71.86;99903.88;130068;1267;114981;-72
2023/10/13 14:24:55;;;;;;;7.60;3.40;;;;;;;21.58;72.13;99896.52;130464;1260;114708;-73
2023/10/13 14:27:58;;;;;;;7.40;3.10;;;;;;;21.54;72.27;99898.89;130402;1266;114640;-73
2023/10/13 14:31:12;;;;;;;8.00;3.30;;;;;;;21.49;72.47;99896.80;130359;1258;114726;-71
2023/10/13 14:34:15;;;;;;;11.30;3.60;;;;;;;21.42;72.49;99896.80;130377;1260;114789;-71
2023/10/13 14:37:26;;;;;;;5.80;3.40;;;;;;;21.36;72.64;99889.35;130369;1259;114810;-72
2023/10/13 14:40:29;;;;;;;8.00;3.10;;;;;;;21.31;72.78;99883.42;130475;1276;114809;-72
2023/10/13 14:43:31;;;;;;;8.10;3.60;;;;;;;21.23;73.00;99879.79;130022;1276;114797;-73
2023/10/13 14:46:39;;;;;;;8.10;3.70;;;;;;;21.17;73.16;99871.95;130482;1257;114745;-72
2023/10/13 14:49:41;;;;;;;10.00;3.60;;;;;;;21.12;73.33;99861.75;130331;1256;115144;-73
2023/10/13 14:52:43;;;;;;;4.80;3.30;;;;;;;21.06;73.46;99857.58;130333;1257;114773;-74
2023/10/13 14:55:45;;;;;;;8.50;3.20;;;;;;;21.00;73.53;99857.23;130505;1260;114809;-73
2023/10/13 14:58:49;;;;;;;7.70;3.80;;;;;;;20.94;73.76;99855.29;130526;1256;114763;-73
2023/10/13 15:01:51;;;;;;;6.90;3.90;;;;;;;20.90;74.00;99850.09;130307;1276;114716;-72
2023/10/13 15:04:54;;;;;;;6.80;3.70;;;;;;;20.86;74.26;99852.25;130266;1276;114722;-72
2023/10/13 15:07:56;;;;;;;9.00;4.50;;;;;;;20.84;74.35;99850.77;130399;1273;115207;-74
2023/10/13 15:11:12;;;;;;;8.50;4.70;;;;;;;20.79;74.44;99850.23;130138;1259;115696;-73
2023/10/13 15:14:15;;;;;;;8.90;4.20;;;;;;;20.75;74.58;99851.40;130364;1276;114747;-73
2023/10/13 15:17:17;;;;;;;9.70;4.50;;;;;;;20.70;74.82;99850.04;130427;1256;115437;-70
2023/10/13 15:20:19;;;;;;;11.20;5.00;;;;;;;20.65;74.93;99845.52;130351;1266;114808;-73
2023/10/13 15:23:24;;;;;;;10.50;4.10;;;;;;;20.57;74.93;99850.58;130329;1257;114758;-71
2023/10/13 15:26:27;;;;;;;12.00;4.20;;;;;;;20.52;75.14;99850.06;127955;1264;3280488;-73
2023/10/13 15:29:35;;;;;;;11.20;4.50;;;;;;;20.47;75.28;99847.80;130319;1258;114790;-71
2023/10/13 15:32:41;;;;;;;8.70;4.60;;;;;;;20.42;75.43;99841.75;130364;1266;115238;-72
2023/10/13 15:35:45;;;;;;;14.20;4.80;;;;;;;20.36;75.68;99833.45;130243;1254;114868;-73
2023/10/13 15:38:47;;;;;;;8.90;4.80;;;;;;;20.29;75.89;99834.14;130351;1276;114746;-72
2023/10/13 15:41:53;;;;;;;9.90;3.70;;;;;;;20.22;76.16;99833.89;130278;1273;114794;-72
2023/10/13 15:44:56;;;;;;;7.80;4.40;;;;;;;20.14;76.35;99827.36;130306;1267;115343;-71
2023/10/13 15:48:02;;;;;;;9.10;4.50;;;;;;;20.06;76.50;99824.23;130470;1263;114725;-73
2023/10/13 15:51:12;;;;;;;11.00;5.30;;;;;;;19.97;76.79;99821.11;130426;1276;114757;-73
2023/10/13 15:54:15;;;;;;;9.90;4.50;;;;;;;19.88;77.07;99816.44;130335;1257;114784;-71
2023/10/13 15:57:17;;;;;;;9.80;4.20;;;;;;;19.81;77.26;99810.96;130251;1258;114798;-71
2023/10/13 16:00:23;;;;;;;8.30;4.80;;;;;;;19.72;77.52;99810.52;130431;1257;114724;-72
2023/10/13 16:03:27;;;;;;;19.90;5.60;;;;;;;19.64;77.65;99810.54;130391;1276;114748;-71
2023/10/13 16:06:29;;;;;;;7.50;4.70;;;;;;;19.56;77.91;99814.77;130365;1256;115176;-71
2023/10/13 16:09:33;;;;;;;10.50;5.50;;;;;;;19.49;78.15;99815.29;130275;1273;114732;-71
2023/10/13 16:12:36;;;;;;;10.70;6.00;;;;;;;19.41;78.42;99813.66;130359;1257;128526;-73
2023/10/13 16:15:42;;;;;;;13.20;5.10;;;;;;;19.34;78.64;99807.65;130353;1254;114787;-72
2023/10/13 16:18:47;;;;;;;13.30;5.80;;;;;;;19.25;78.95;99809.55;130383;1258;114754;-74
2023/10/13 16:21:49;;;;;;;;;;;;;;;19.17;79.02;99806.84;130387;1257;114735;-73
2023/10/13 16:24:52;;;;;;;14.20;5.50;;;;;;;19.07;79.39;99804.89;130342;1261;114977;-72
2023/10/13 16:27:54;;;;;;;14.60;6.20;;;;;;;18.97;79.52;99798.04;130224;1258;114869;-71
2023/10/13 16:30:56;;;;;;;18.80;7.20;;;;;;;18.88;79.72;99797.98;130314;1267;117326;-72
2023/10/13 16:34:02;;;;;;;14.00;6.40;;;;;;;18.78;79.92;99799.71;130337;1257;115261;-72
2023/10/13 16:37:04;;;;;;;15.30;6.40;;;;;;;18.70;80.17;99800.11;130016;1258;115167;-73
2023/10/13 16:40:08;;;;;;;11.10;5.50;;;;;;;18.61;80.46;99795.93;130381;1256;114737;-71
2023/10/13 16:43:12;;;;;;;8.60;5.50;;;;;;;18.52;80.74;99797.23;130401;1257;114823;-72
2023/10/13 16:46:17;;;;;;;18.90;6.70;;;;;;;18.45;81.01;99793.73;130091;1260;127745;-72